Terminal Aerodrome Forecast
Issued by NWS Duluth, MN

Home | Current Version | Previous Version | Text Only | Print | Product List | Glossary On
Versions: 1 2 3 4 5 6 7 8 9 10 11 12 13 14 15 16 17 18 19 20 21 22 23 24
224
FTUS43 KDLH 031437 AAA
TAFINL
TAF AMD
KINL 031437Z 0315/0412 34010KT P6SM SCT150
      TEMPO 0315/0317 2SM BR BKN004
     FM040400 VRB03KT 5SM -SN SCT035 OVC050
     FM041000 VRB02KT 2SM -SN BKN015 OVC025=

USA.gov is the U.S. government's official web portal to all federal, state and local government web resources and services.